FDX1077 KAFW-KAUS
Flight info
| Callsign | FDX1077 |
|---|---|
| Flight time | 1h 4m |
| Altitude | 8000 |
| Route | KAFW KAUS |
| Aircraft | C208/L-VGD/C |
Departure
| Time | 2026-05-04 21:32 |
|---|---|
| Airport | Perot Field/Fort Worth Alliance Airport (KAFW) |
Arrival
| Time | 2026-05-04 22:36 |
|---|---|
| Airport | Austin Bergstrom International Airport (KAUS) |
| Time | Latitude | Longitude | Altitude | Speed | Heading |
|---|---|---|---|---|---|
| 2026-05-04 21:29 | 32.99786 | -97.31896 | 689 ft | 0 kts | 261° |
| 2026-05-04 21:30 | 32.99784 | -97.31914 | 689 ft | 6 kts | 261° |
| 2026-05-04 21:30 | 32.99771 | -97.31976 | 689 ft | 10 kts | 236° |
| 2026-05-04 21:30 | 32.99710 | -97.31984 | 689 ft | 15 kts | 170° |
| 2026-05-04 21:30 | 32.99406 | -97.31922 | 690 ft | 73 kts | 171° |
| 2026-05-04 21:31 | 32.98046 | -97.31643 | 879 ft | 114 kts | 171° |
| 2026-05-04 21:31 | 32.97220 | -97.31501 | 1027 ft | 123 kts | 173° |
| 2026-05-04 21:31 | 32.96376 | -97.31432 | 1292 ft | 118 kts | 184° |
| 2026-05-04 21:32 | 32.95564 | -97.31561 | 1458 ft | 120 kts | 189° |
| 2026-05-04 21:32 | 32.94725 | -97.31693 | 1583 ft | 121 kts | 185° |
| 2026-05-04 21:32 | 32.93861 | -97.31828 | 1584 ft | 128 kts | 188° |
| 2026-05-04 21:32 | 32.92979 | -97.32011 | 1660 ft | 127 kts | 189° |
| 2026-05-04 21:33 | 32.92130 | -97.32217 | 1865 ft | 124 kts | 189° |
| 2026-05-04 21:33 | 32.91260 | -97.32412 | 1950 ft | 130 kts | 189° |
| 2026-05-04 21:33 | 32.90325 | -97.32595 | 1907 ft | 140 kts | 187° |
| 2026-05-04 21:33 | 32.89343 | -97.32745 | 1766 ft | 146 kts | 187° |
| 2026-05-04 21:34 | 32.88323 | -97.32940 | 1670 ft | 148 kts | 190° |
| 2026-05-04 21:34 | 32.87316 | -97.33191 | 1642 ft | 147 kts | 192° |
| 2026-05-04 21:34 | 32.86338 | -97.33527 | 1528 ft | 150 kts | 197° |
| 2026-05-04 21:34 | 32.85350 | -97.33986 | 1413 ft | 154 kts | 204° |
| 2026-05-04 21:35 | 32.84382 | -97.34442 | 1469 ft | 145 kts | 187° |
| 2026-05-04 21:35 | 32.83375 | -97.34553 | 1575 ft | 146 kts | 186° |
| 2026-05-04 21:35 | 32.82389 | -97.34711 | 1756 ft | 141 kts | 188° |
| 2026-05-04 21:35 | 32.81418 | -97.34819 | 1931 ft | 139 kts | 185° |
| 2026-05-04 21:36 | 32.80454 | -97.34933 | 2100 ft | 140 kts | 186° |
| 2026-05-04 21:36 | 32.79497 | -97.35049 | 2265 ft | 137 kts | 185° |
| 2026-05-04 21:36 | 32.78561 | -97.35161 | 2431 ft | 133 kts | 186° |
| 2026-05-04 21:36 | 32.77646 | -97.35264 | 2606 ft | 132 kts | 185° |
| 2026-05-04 21:37 | 32.76732 | -97.35383 | 2774 ft | 132 kts | 186° |
| 2026-05-04 21:37 | 32.75817 | -97.35501 | 2936 ft | 132 kts | 186° |
| 2026-05-04 21:37 | 32.74909 | -97.35607 | 3103 ft | 130 kts | 186° |
| 2026-05-04 21:37 | 32.74021 | -97.35718 | 3277 ft | 126 kts | 186° |
| 2026-05-04 21:38 | 32.73151 | -97.35797 | 3446 ft | 129 kts | 186° |
| 2026-05-04 21:38 | 32.72245 | -97.35850 | 3604 ft | 131 kts | 186° |
| 2026-05-04 21:38 | 32.71346 | -97.35906 | 3773 ft | 127 kts | 186° |
| 2026-05-04 21:38 | 32.70461 | -97.35933 | 3950 ft | 129 kts | 186° |
| 2026-05-04 21:39 | 32.69554 | -97.35918 | 4100 ft | 132 kts | 187° |
| 2026-05-04 21:39 | 32.68639 | -97.35892 | 4220 ft | 131 kts | 186° |
| 2026-05-04 21:39 | 32.67723 | -97.35872 | 4347 ft | 133 kts | 186° |
| 2026-05-04 21:39 | 32.66789 | -97.35847 | 4495 ft | 136 kts | 186° |
| 2026-05-04 21:40 | 32.65837 | -97.35805 | 4624 ft | 138 kts | 186° |
| 2026-05-04 21:40 | 32.64877 | -97.35767 | 4746 ft | 139 kts | 186° |
| 2026-05-04 21:40 | 32.63905 | -97.35717 | 4864 ft | 141 kts | 186° |
| 2026-05-04 21:40 | 32.62911 | -97.35670 | 4988 ft | 144 kts | 186° |
| 2026-05-04 21:41 | 32.61898 | -97.35618 | 5112 ft | 148 kts | 185° |
| 2026-05-04 21:41 | 32.60867 | -97.35572 | 5233 ft | 149 kts | 186° |
| 2026-05-04 21:41 | 32.59826 | -97.35530 | 5355 ft | 151 kts | 186° |
| 2026-05-04 21:41 | 32.58777 | -97.35483 | 5477 ft | 152 kts | 186° |
| 2026-05-04 21:42 | 32.57720 | -97.35423 | 5596 ft | 153 kts | 186° |
| 2026-05-04 21:42 | 32.56661 | -97.35368 | 5715 ft | 152 kts | 186° |
| 2026-05-04 21:42 | 32.55602 | -97.35312 | 5841 ft | 153 kts | 186° |
| 2026-05-04 21:42 | 32.54534 | -97.35246 | 5962 ft | 155 kts | 186° |
| 2026-05-04 21:43 | 32.53450 | -97.35182 | 6084 ft | 157 kts | 186° |
| 2026-05-04 21:43 | 32.52359 | -97.35120 | 6205 ft | 157 kts | 186° |
| 2026-05-04 21:43 | 32.51268 | -97.35054 | 6328 ft | 157 kts | 186° |
| 2026-05-04 21:43 | 32.50185 | -97.34991 | 6442 ft | 159 kts | 186° |
| 2026-05-04 21:44 | 32.49073 | -97.34926 | 6559 ft | 160 kts | 186° |
| 2026-05-04 21:44 | 32.47958 | -97.34868 | 6676 ft | 161 kts | 186° |
| 2026-05-04 21:44 | 32.46835 | -97.34809 | 6794 ft | 162 kts | 186° |
| 2026-05-04 21:44 | 32.45709 | -97.34740 | 6910 ft | 162 kts | 186° |
| 2026-05-04 21:45 | 32.44582 | -97.34669 | 6973 ft | 162 kts | 186° |
| 2026-05-04 21:45 | 32.43484 | -97.34597 | 7263 ft | 150 kts | 186° |
| 2026-05-04 21:45 | 32.42504 | -97.34513 | 7709 ft | 133 kts | 186° |
| 2026-05-04 21:45 | 32.41589 | -97.34418 | 7974 ft | 138 kts | 186° |
| 2026-05-04 21:46 | 32.40577 | -97.34326 | 7987 ft | 151 kts | 186° |
| 2026-05-04 21:46 | 32.39506 | -97.34248 | 7992 ft | 157 kts | 185° |
| 2026-05-04 21:46 | 32.38398 | -97.34170 | 7992 ft | 162 kts | 186° |
| 2026-05-04 21:46 | 32.37266 | -97.34095 | 7993 ft | 164 kts | 186° |
| 2026-05-04 21:47 | 32.36124 | -97.34024 | 7993 ft | 165 kts | 186° |
| 2026-05-04 21:47 | 32.34977 | -97.33945 | 7988 ft | 165 kts | 186° |
| 2026-05-04 21:47 | 32.33824 | -97.33862 | 7988 ft | 167 kts | 185° |
| 2026-05-04 21:47 | 32.32664 | -97.33792 | 7988 ft | 167 kts | 186° |
| 2026-05-04 21:48 | 32.31507 | -97.33724 | 7987 ft | 166 kts | 186° |
| 2026-05-04 21:48 | 32.30350 | -97.33645 | 7986 ft | 167 kts | 186° |
| 2026-05-04 21:48 | 32.29195 | -97.33567 | 7985 ft | 166 kts | 186° |
| 2026-05-04 21:48 | 32.28043 | -97.33488 | 7988 ft | 165 kts | 186° |
| 2026-05-04 21:49 | 32.26894 | -97.33412 | 7989 ft | 167 kts | 186° |
| 2026-05-04 21:49 | 32.25722 | -97.33345 | 7997 ft | 170 kts | 186° |
| 2026-05-04 21:49 | 32.24531 | -97.33279 | 7998 ft | 172 kts | 186° |
| 2026-05-04 21:49 | 32.23331 | -97.33216 | 7998 ft | 173 kts | 186° |
| 2026-05-04 21:50 | 32.22118 | -97.33156 | 7998 ft | 175 kts | 186° |
| 2026-05-04 21:50 | 32.20900 | -97.33090 | 8001 ft | 175 kts | 186° |
| 2026-05-04 21:50 | 32.19679 | -97.33023 | 8000 ft | 176 kts | 185° |
| 2026-05-04 21:50 | 32.18458 | -97.32965 | 8001 ft | 176 kts | 186° |
| 2026-05-04 21:51 | 32.17236 | -97.32904 | 8007 ft | 176 kts | 186° |
| 2026-05-04 21:51 | 32.16011 | -97.32839 | 8042 ft | 177 kts | 186° |
| 2026-05-04 21:51 | 32.14800 | -97.32785 | 8043 ft | 177 kts | 186° |
| 2026-05-04 21:51 | 32.13571 | -97.32727 | 8040 ft | 177 kts | 186° |
| 2026-05-04 21:52 | 32.12343 | -97.32671 | 8041 ft | 176 kts | 186° |
| 2026-05-04 21:52 | 32.11115 | -97.32619 | 8041 ft | 177 kts | 186° |
| 2026-05-04 21:52 | 32.09882 | -97.32562 | 8041 ft | 177 kts | 186° |
| 2026-05-04 21:52 | 32.08651 | -97.32506 | 8042 ft | 177 kts | 186° |
| 2026-05-04 21:53 | 32.07420 | -97.32459 | 8042 ft | 177 kts | 186° |
| 2026-05-04 21:53 | 32.06189 | -97.32411 | 8039 ft | 177 kts | 186° |
| 2026-05-04 21:53 | 32.04961 | -97.32354 | 8037 ft | 176 kts | 186° |
| 2026-05-04 21:53 | 32.03736 | -97.32296 | 8043 ft | 176 kts | 186° |
| 2026-05-04 21:54 | 32.02510 | -97.32246 | 8039 ft | 177 kts | 186° |
| 2026-05-04 21:54 | 32.01280 | -97.32194 | 8040 ft | 177 kts | 186° |
| 2026-05-04 21:54 | 32.00051 | -97.32141 | 8036 ft | 177 kts | 186° |
| 2026-05-04 21:54 | 31.98824 | -97.32093 | 8040 ft | 177 kts | 186° |
| 2026-05-04 21:55 | 31.97596 | -97.32043 | 8038 ft | 177 kts | 186° |
| 2026-05-04 21:55 | 31.96368 | -97.31986 | 8035 ft | 176 kts | 186° |
| 2026-05-04 21:55 | 31.95141 | -97.31933 | 8036 ft | 176 kts | 186° |
| 2026-05-04 21:55 | 31.93926 | -97.31907 | 8034 ft | 173 kts | 188° |
| 2026-05-04 21:56 | 31.92730 | -97.31960 | 8033 ft | 171 kts | 191° |
| 2026-05-04 21:56 | 31.91544 | -97.32036 | 8033 ft | 171 kts | 191° |
| 2026-05-04 21:56 | 31.90359 | -97.32105 | 8036 ft | 170 kts | 191° |
| 2026-05-04 21:56 | 31.89184 | -97.32175 | 8036 ft | 169 kts | 191° |
| 2026-05-04 21:57 | 31.88005 | -97.32242 | 8037 ft | 170 kts | 191° |
| 2026-05-04 21:57 | 31.86828 | -97.32311 | 8047 ft | 169 kts | 191° |
| 2026-05-04 21:57 | 31.85649 | -97.32374 | 8046 ft | 170 kts | 191° |
| 2026-05-04 21:57 | 31.84468 | -97.32439 | 8050 ft | 170 kts | 191° |
| 2026-05-04 21:58 | 31.83286 | -97.32511 | 8052 ft | 170 kts | 191° |
| 2026-05-04 21:58 | 31.82108 | -97.32583 | 8050 ft | 169 kts | 191° |
| 2026-05-04 21:58 | 31.80931 | -97.32645 | 8050 ft | 169 kts | 191° |
| 2026-05-04 21:58 | 31.79753 | -97.32716 | 8050 ft | 169 kts | 190° |
| 2026-05-04 21:59 | 31.78581 | -97.32795 | 8053 ft | 169 kts | 191° |
| 2026-05-04 21:59 | 31.77412 | -97.32865 | 8054 ft | 168 kts | 191° |
| 2026-05-04 21:59 | 31.76247 | -97.32939 | 8058 ft | 168 kts | 191° |
| 2026-05-04 21:59 | 31.75078 | -97.33012 | 8060 ft | 169 kts | 191° |
| 2026-05-04 22:00 | 31.73907 | -97.33085 | 8040 ft | 168 kts | 191° |
| 2026-05-04 22:00 | 31.72734 | -97.33153 | 8040 ft | 169 kts | 191° |
| 2026-05-04 22:00 | 31.71555 | -97.33221 | 8040 ft | 170 kts | 191° |
| 2026-05-04 22:00 | 31.70372 | -97.33294 | 8042 ft | 171 kts | 191° |
| 2026-05-04 22:01 | 31.69188 | -97.33367 | 8042 ft | 170 kts | 191° |
| 2026-05-04 22:01 | 31.68007 | -97.33435 | 8039 ft | 170 kts | 190° |
| 2026-05-04 22:01 | 31.66823 | -97.33505 | 8036 ft | 170 kts | 191° |
| 2026-05-04 22:01 | 31.65644 | -97.33577 | 8041 ft | 170 kts | 191° |
| 2026-05-04 22:02 | 31.64462 | -97.33653 | 8043 ft | 170 kts | 191° |
| 2026-05-04 22:02 | 31.63274 | -97.33726 | 8040 ft | 171 kts | 191° |
| 2026-05-04 22:02 | 31.62088 | -97.33799 | 8043 ft | 170 kts | 191° |
| 2026-05-04 22:02 | 31.60907 | -97.33880 | 8044 ft | 170 kts | 191° |
| 2026-05-04 22:03 | 31.59745 | -97.33961 | 8043 ft | 169 kts | 191° |
| 2026-05-04 22:03 | 31.58571 | -97.34075 | 8042 ft | 169 kts | 193° |
| 2026-05-04 22:03 | 31.57398 | -97.34196 | 8040 ft | 169 kts | 193° |
| 2026-05-04 22:03 | 31.56225 | -97.34315 | 8040 ft | 169 kts | 193° |
| 2026-05-04 22:04 | 31.55053 | -97.34443 | 8041 ft | 169 kts | 193° |
| 2026-05-04 22:04 | 31.53883 | -97.34570 | 8041 ft | 169 kts | 193° |
| 2026-05-04 22:04 | 31.52708 | -97.34696 | 8037 ft | 169 kts | 193° |
| 2026-05-04 22:04 | 31.51534 | -97.34829 | 8039 ft | 169 kts | 193° |
| 2026-05-04 22:05 | 31.50361 | -97.34961 | 8039 ft | 169 kts | 193° |
| 2026-05-04 22:05 | 31.49189 | -97.35093 | 8040 ft | 169 kts | 193° |
| 2026-05-04 22:05 | 31.48022 | -97.35228 | 8039 ft | 169 kts | 193° |
| 2026-05-04 22:05 | 31.46850 | -97.35363 | 8038 ft | 169 kts | 192° |
| 2026-05-04 22:06 | 31.45676 | -97.35497 | 8038 ft | 169 kts | 193° |
| 2026-05-04 22:06 | 31.44502 | -97.35635 | 8037 ft | 170 kts | 193° |
| 2026-05-04 22:06 | 31.43336 | -97.35816 | 8038 ft | 168 kts | 198° |
| 2026-05-04 22:06 | 31.42184 | -97.36072 | 8039 ft | 169 kts | 198° |
| 2026-05-04 22:07 | 31.41029 | -97.36339 | 8040 ft | 169 kts | 198° |
| 2026-05-04 22:07 | 31.39877 | -97.36605 | 8042 ft | 168 kts | 198° |
| 2026-05-04 22:07 | 31.39115 | -97.36778 | 8042 ft | 168 kts | 198° |
| 2026-05-04 22:07 | 31.37965 | -97.37048 | 8037 ft | 169 kts | 198° |
| 2026-05-04 22:08 | 31.36815 | -97.37316 | 8040 ft | 168 kts | 197° |
| 2026-05-04 22:08 | 31.35668 | -97.37587 | 8041 ft | 168 kts | 198° |
| 2026-05-04 22:08 | 31.34517 | -97.37857 | 8043 ft | 168 kts | 198° |
| 2026-05-04 22:08 | 31.33374 | -97.38125 | 8042 ft | 167 kts | 198° |
| 2026-05-04 22:09 | 31.32232 | -97.38398 | 8044 ft | 168 kts | 198° |
| 2026-05-04 22:09 | 31.31086 | -97.38670 | 8050 ft | 168 kts | 198° |
| 2026-05-04 22:09 | 31.29941 | -97.38937 | 8052 ft | 168 kts | 198° |
| 2026-05-04 22:09 | 31.28794 | -97.39205 | 8051 ft | 168 kts | 198° |
| 2026-05-04 22:10 | 31.27649 | -97.39473 | 8046 ft | 168 kts | 198° |
| 2026-05-04 22:10 | 31.26504 | -97.39737 | 8046 ft | 168 kts | 198° |
| 2026-05-04 22:10 | 31.25355 | -97.40002 | 8050 ft | 168 kts | 198° |
| 2026-05-04 22:10 | 31.24211 | -97.40272 | 8047 ft | 167 kts | 198° |
| 2026-05-04 22:11 | 31.23066 | -97.40536 | 8053 ft | 168 kts | 198° |
| 2026-05-04 22:11 | 31.21917 | -97.40804 | 8048 ft | 169 kts | 198° |
| 2026-05-04 22:11 | 31.20766 | -97.41078 | 8049 ft | 169 kts | 198° |
| 2026-05-04 22:11 | 31.19611 | -97.41351 | 8049 ft | 169 kts | 198° |
| 2026-05-04 22:12 | 31.18457 | -97.41626 | 8047 ft | 170 kts | 198° |
| 2026-05-04 22:12 | 31.17299 | -97.41899 | 8049 ft | 169 kts | 197° |
| 2026-05-04 22:12 | 31.16142 | -97.42174 | 8049 ft | 170 kts | 198° |
| 2026-05-04 22:12 | 31.14983 | -97.42452 | 8047 ft | 170 kts | 198° |
| 2026-05-04 22:13 | 31.13827 | -97.42728 | 8048 ft | 169 kts | 198° |
| 2026-05-04 22:13 | 31.12672 | -97.43007 | 8045 ft | 169 kts | 198° |
| 2026-05-04 22:13 | 31.11519 | -97.43286 | 8047 ft | 169 kts | 198° |
| 2026-05-04 22:13 | 31.10365 | -97.43564 | 8046 ft | 170 kts | 198° |
| 2026-05-04 22:14 | 31.09208 | -97.43845 | 8047 ft | 170 kts | 198° |
| 2026-05-04 22:14 | 31.08050 | -97.44127 | 8048 ft | 170 kts | 198° |
| 2026-05-04 22:14 | 31.06903 | -97.44405 | 8046 ft | 171 kts | 198° |
| 2026-05-04 22:14 | 31.05741 | -97.44689 | 8050 ft | 170 kts | 199° |
| 2026-05-04 22:15 | 31.04580 | -97.44969 | 8053 ft | 171 kts | 198° |
| 2026-05-04 22:15 | 31.03417 | -97.45248 | 8047 ft | 170 kts | 198° |
| 2026-05-04 22:15 | 31.02251 | -97.45534 | 8048 ft | 171 kts | 198° |
| 2026-05-04 22:15 | 31.01086 | -97.45820 | 8047 ft | 171 kts | 198° |
| 2026-05-04 22:16 | 30.99919 | -97.46110 | 8046 ft | 172 kts | 198° |
| 2026-05-04 22:16 | 30.98753 | -97.46402 | 8052 ft | 171 kts | 198° |
| 2026-05-04 22:16 | 30.97589 | -97.46694 | 8050 ft | 171 kts | 198° |
| 2026-05-04 22:16 | 30.96426 | -97.46990 | 8047 ft | 171 kts | 198° |
| 2026-05-04 22:17 | 30.95269 | -97.47281 | 8047 ft | 170 kts | 198° |
| 2026-05-04 22:17 | 30.94116 | -97.47571 | 8047 ft | 170 kts | 198° |
| 2026-05-04 22:17 | 30.92964 | -97.47859 | 8049 ft | 169 kts | 198° |
| 2026-05-04 22:17 | 30.91815 | -97.48158 | 8046 ft | 169 kts | 198° |
| 2026-05-04 22:18 | 30.90662 | -97.48448 | 8051 ft | 169 kts | 198° |
| 2026-05-04 22:18 | 30.89510 | -97.48740 | 8052 ft | 170 kts | 198° |
| 2026-05-04 22:18 | 30.88357 | -97.49034 | 8055 ft | 169 kts | 198° |
| 2026-05-04 22:18 | 30.87205 | -97.49319 | 8057 ft | 169 kts | 198° |
| 2026-05-04 22:19 | 30.86051 | -97.49609 | 8056 ft | 170 kts | 198° |
| 2026-05-04 22:19 | 30.84898 | -97.49899 | 8058 ft | 170 kts | 198° |
| 2026-05-04 22:19 | 30.83742 | -97.50187 | 8059 ft | 170 kts | 198° |
| 2026-05-04 22:19 | 30.82584 | -97.50482 | 8057 ft | 170 kts | 198° |
| 2026-05-04 22:20 | 30.81424 | -97.50769 | 8060 ft | 171 kts | 197° |
| 2026-05-04 22:20 | 30.80264 | -97.51060 | 8060 ft | 170 kts | 198° |
| 2026-05-04 22:20 | 30.79104 | -97.51350 | 8063 ft | 171 kts | 198° |
| 2026-05-04 22:20 | 30.77937 | -97.51652 | 8010 ft | 173 kts | 198° |
| 2026-05-04 22:21 | 30.76770 | -97.51954 | 8009 ft | 172 kts | 198° |
| 2026-05-04 22:21 | 30.75604 | -97.52258 | 8008 ft | 171 kts | 198° |
| 2026-05-04 22:21 | 30.74443 | -97.52558 | 8009 ft | 171 kts | 198° |
| 2026-05-04 22:21 | 30.73284 | -97.52857 | 8008 ft | 171 kts | 198° |
| 2026-05-04 22:22 | 30.72123 | -97.53155 | 8013 ft | 171 kts | 198° |
| 2026-05-04 22:22 | 30.70960 | -97.53454 | 8010 ft | 171 kts | 198° |
| 2026-05-04 22:22 | 30.69796 | -97.53753 | 8012 ft | 171 kts | 198° |
| 2026-05-04 22:22 | 30.68633 | -97.54055 | 8009 ft | 171 kts | 197° |
| 2026-05-04 22:23 | 30.67474 | -97.54361 | 8008 ft | 170 kts | 198° |
| 2026-05-04 22:23 | 30.66871 | -97.54519 | 8009 ft | 170 kts | 198° |
| 2026-05-04 22:23 | 30.65715 | -97.54819 | 8008 ft | 170 kts | 198° |
| 2026-05-04 22:23 | 30.64561 | -97.55120 | 8005 ft | 170 kts | 198° |
| 2026-05-04 22:24 | 30.63408 | -97.55421 | 8005 ft | 170 kts | 198° |
| 2026-05-04 22:24 | 30.62257 | -97.55725 | 8005 ft | 169 kts | 198° |
| 2026-05-04 22:24 | 30.61107 | -97.56027 | 8006 ft | 170 kts | 198° |
| 2026-05-04 22:24 | 30.59954 | -97.56329 | 8001 ft | 170 kts | 198° |
| 2026-05-04 22:25 | 30.58825 | -97.56707 | 8001 ft | 169 kts | 203° |
| 2026-05-04 22:25 | 30.57710 | -97.57129 | 8003 ft | 169 kts | 203° |
| 2026-05-04 22:25 | 30.56589 | -97.57546 | 8004 ft | 169 kts | 203° |
| 2026-05-04 22:25 | 30.55466 | -97.57964 | 8001 ft | 169 kts | 202° |
| 2026-05-04 22:26 | 30.54352 | -97.58383 | 8002 ft | 167 kts | 203° |
| 2026-05-04 22:26 | 30.53269 | -97.58785 | 7996 ft | 164 kts | 204° |
| 2026-05-04 22:26 | 30.52173 | -97.59190 | 7991 ft | 162 kts | 204° |
| 2026-05-04 22:26 | 30.51105 | -97.59588 | 7997 ft | 161 kts | 204° |
| 2026-05-04 22:27 | 30.50056 | -97.59968 | 7990 ft | 160 kts | 202° |
| 2026-05-04 22:27 | 30.49022 | -97.60349 | 7992 ft | 159 kts | 203° |
| 2026-05-04 22:27 | 30.47965 | -97.60735 | 7991 ft | 159 kts | 202° |
| 2026-05-04 22:27 | 30.46916 | -97.61127 | 7989 ft | 158 kts | 204° |
| 2026-05-04 22:28 | 30.45869 | -97.61515 | 7989 ft | 158 kts | 202° |
| 2026-05-04 22:28 | 30.44828 | -97.61912 | 7992 ft | 157 kts | 205° |
| 2026-05-04 22:28 | 30.43921 | -97.62566 | 7987 ft | 153 kts | 223° |
| 2026-05-04 22:28 | 30.43096 | -97.63354 | 7989 ft | 154 kts | 223° |
| 2026-05-04 22:29 | 30.42271 | -97.64151 | 7835 ft | 155 kts | 223° |
| 2026-05-04 22:29 | 30.41440 | -97.64953 | 7623 ft | 155 kts | 224° |
| 2026-05-04 22:29 | 30.40643 | -97.65758 | 7425 ft | 149 kts | 224° |
| 2026-05-04 22:29 | 30.39864 | -97.66520 | 7145 ft | 146 kts | 221° |
| 2026-05-04 22:30 | 30.39000 | -97.67149 | 6832 ft | 147 kts | 209° |
| 2026-05-04 22:30 | 30.38035 | -97.67548 | 6489 ft | 148 kts | 199° |
| 2026-05-04 22:30 | 30.37029 | -97.67806 | 6145 ft | 146 kts | 194° |
| 2026-05-04 22:30 | 30.36037 | -97.67954 | 5693 ft | 142 kts | 188° |
| 2026-05-04 22:31 | 30.35067 | -97.68012 | 5312 ft | 137 kts | 182° |
| 2026-05-04 22:31 | 30.34129 | -97.68022 | 4959 ft | 133 kts | 184° |
| 2026-05-04 22:31 | 30.33201 | -97.68075 | 4478 ft | 136 kts | 184° |
| 2026-05-04 22:31 | 30.32239 | -97.68142 | 4033 ft | 142 kts | 184° |
| 2026-05-04 22:32 | 30.31243 | -97.68180 | 3664 ft | 144 kts | 181° |
| 2026-05-04 22:32 | 30.30248 | -97.68146 | 3322 ft | 140 kts | 178° |
| 2026-05-04 22:32 | 30.29292 | -97.68089 | 2931 ft | 136 kts | 178° |
| 2026-05-04 22:32 | 30.28355 | -97.68054 | 2540 ft | 131 kts | 180° |
| 2026-05-04 22:33 | 30.27658 | -97.68066 | 2463 ft | 81 kts | 181° |
| 2026-05-04 22:33 | 30.27148 | -97.68057 | 2289 ft | 73 kts | 180° |
| 2026-05-04 22:33 | 30.26625 | -97.68064 | 2145 ft | 75 kts | 184° |
| 2026-05-04 22:33 | 30.26130 | -97.68074 | 2019 ft | 70 kts | 178° |
| 2026-05-04 22:34 | 30.25616 | -97.68039 | 1763 ft | 76 kts | 177° |
| 2026-05-04 22:34 | 30.25076 | -97.68036 | 1534 ft | 76 kts | 177° |
| 2026-05-04 22:34 | 30.24560 | -97.68010 | 1371 ft | 76 kts | 180° |
| 2026-05-04 22:34 | 30.24017 | -97.67981 | 1247 ft | 80 kts | 177° |
| 2026-05-04 22:35 | 30.23454 | -97.67998 | 1081 ft | 82 kts | 175° |
| 2026-05-04 22:35 | 30.22909 | -97.67977 | 939 ft | 74 kts | 179° |
| 2026-05-04 22:35 | 30.22369 | -97.67953 | 831 ft | 83 kts | 181° |
| 2026-05-04 22:35 | 30.21790 | -97.67945 | 713 ft | 82 kts | 179° |
| 2026-05-04 22:36 | 30.21215 | -97.67931 | 561 ft | 82 kts | 179° |
| 2026-05-04 22:36 | 30.20734 | -97.67920 | 528 ft | 55 kts | 178° |
| 2026-05-04 22:36 | 30.20425 | -97.67911 | 526 ft | 37 kts | 179° |
| 2026-05-04 22:36 | 30.20177 | -97.67905 | 526 ft | 33 kts | 177° |
| 2026-05-04 22:37 | 30.19961 | -97.67861 | 525 ft | 30 kts | 154° |
| 2026-05-04 22:37 | 30.19886 | -97.67686 | 526 ft | 25 kts | 89° |
| 2026-05-04 22:37 | 30.19890 | -97.67494 | 526 ft | 23 kts | 88° |
| 2026-05-04 22:37 | 30.19908 | -97.67332 | 526 ft | 11 kts | 33° |
| 2026-05-04 22:38 | 30.20005 | -97.67331 | 526 ft | 26 kts | 358° |
| 2026-05-04 22:38 | 30.20300 | -97.67341 | 526 ft | 50 kts | 359° |
| 2026-05-04 22:38 | 30.20642 | -97.67353 | 526 ft | 48 kts | 356° |
| 2026-05-04 22:38 | 30.20954 | -97.67441 | 526 ft | 45 kts | 345° |
| 2026-05-04 22:39 | 30.21246 | -97.67532 | 526 ft | 39 kts | 345° |
| 2026-05-04 22:39 | 30.21427 | -97.67520 | 526 ft | 25 kts | 28° |
| 2026-05-04 22:39 | 30.21596 | -97.67432 | 526 ft | 26 kts | 29° |
| 2026-05-04 22:39 | 30.21638 | -97.67310 | 526 ft | 14 kts | 103° |
| 2026-05-04 22:40 | 30.21633 | -97.67211 | 526 ft | 7 kts | 43° |
| 2026-05-04 22:40 | 30.21685 | -97.67201 | 526 ft | 8 kts | 10° |
| 2026-05-04 22:40 | 30.21697 | -97.67199 | 526 ft | 0 kts | 11° |